< < Back
Terminal Aerodrome Forecast


Current Version              Previous Versions:   1  2  3  4  5  6  7  8  9  

Terminal Aerodrome Forecast

122
FTUS42 KCHS 012100 AAA
TAFSAV
TAF AMD
KSAV 012119Z 0121/0218 15010KT P6SM VCTS SCT035CB BKN150
      TEMPO 0122/0124 VRB20G25KT 5SM TSRA SCT025 BKN035CB
     FM020100 VRB04KT P6SM FEW025 SCT200=



Latest METAR

313
SAUS80 KWBC 011700 RRQ
MTRSAV
METAR KSAV 021653Z 13006KT 10SM SCT039TCU BKN050 BKN080 BKN150 34/23
A3007 RMK AO2 SLP180 TCU S T03440233


USA.gov is the U.S. government's official web portal to all federal, state and local government web resources and services.